Time;durP1;ratioP1;P1;durP2;ratioP2;P2;SDS_P1;SDS_P2;PMS_P1;PMS_P2;Temp;Humidity;BMP_temperature;BMP_pressure;BME280_temperature;BME280_humidity;BME280_pressure;Samples;Min_cycle;Max_cycle;Signal;HPM_P1;HPM_P2
2022/07/12 00:02:10;;;;;;;2.62;1.25;;;;;;;14.32;93.40;99155.77;1636557;86;21527;-81
2022/07/12 00:04:37;;;;;;;2.62;1.30;;;;;;;14.30;92.85;99154.63;1623637;86;21128;-79
2022/07/12 00:07:04;;;;;;;3.02;1.20;;;;;;;14.30;93.04;99153.29;1624684;86;21110;-79
2022/07/12 00:09:30;;;;;;;1.17;1.07;;;;;;;14.28;93.26;99151.34;1626919;88;21053;-78
2022/07/12 00:12:01;;;;;;;3.00;1.40;;;;;;;14.28;93.45;99158.02;1626770;86;21074;-76
2022/07/12 00:14:25;;;;;;;2.12;1.40;;;;;;;14.27;92.58;99155.03;1634736;86;21094;-79
2022/07/12 00:16:52;;;;;;;3.02;1.47;;;;;;;14.29;92.38;99155.67;1613405;87;21138;-76
2022/07/12 00:19:19;;;;;;;2.60;1.45;;;;;;;14.28;92.72;99158.02;1623265;85;21183;-77
2022/07/12 00:21:46;;;;;;;1.67;1.50;;;;;;;14.28;92.93;99160.69;1600725;87;21058;-79
2022/07/12 00:24:12;;;;;;;1.27;1.17;;;;;;;14.30;93.27;99153.29;1607767;87;21109;-76
2022/07/12 00:26:39;;;;;;;2.83;2.00;;;;;;;14.28;93.27;99156.69;1631183;86;21034;-78
2022/07/12 00:29:06;;;;;;;2.40;1.10;;;;;;;14.27;93.29;99153.69;1625219;86;21090;-75
2022/07/12 00:31:33;;;;;;;4.75;1.60;;;;;;;14.27;93.39;99151.54;1626828;86;21220;-77
2022/07/12 00:34:01;;;;;;;2.60;1.30;;;;;;;14.24;93.21;99143.44;1629375;86;21050;-75
2022/07/12 00:36:29;;;;;;;2.83;1.15;;;;;;;14.24;93.30;99143.95;1628539;86;21109;-77
2022/07/12 00:38:56;;;;;;;2.00;1.22;;;;;;;14.23;92.37;99151.12;1632026;86;21093;-77
2022/07/12 00:41:23;;;;;;;1.32;1.12;;;;;;;14.26;92.59;99143.23;1629834;86;21371;-77
2022/07/12 00:43:52;;;;;;;1.80;1.10;;;;;;;14.28;92.46;99139.84;1628859;86;21701;-77
2022/07/12 00:46:22;;;;;;;3.58;1.40;;;;;;;14.28;91.82;99146.00;1634612;86;21122;-76
2022/07/12 00:48:48;;;;;;;3.35;1.30;;;;;;;14.29;92.56;99146.32;1628881;86;21041;-74
2022/07/12 00:51:16;;;;;;;2.10;1.00;;;;;;;14.31;95.62;99151.43;1630829;86;21088;-76
2022/07/12 00:53:42;;;;;;;2.52;1.25;;;;;;;14.26;94.80;99142.71;1608447;86;21101;-76
2022/07/12 00:56:09;;;;;;;2.15;1.05;;;;;;;14.27;95.32;99148.34;1627177;86;21263;-77
2022/07/12 00:58:36;;;;;;;1.72;1.25;;;;;;;14.23;93.57;99151.12;1630309;86;21034;-76
2022/07/12 01:01:03;;;;;;;2.25;1.40;;;;;;;14.24;94.15;99147.44;1627785;86;21091;-79
2022/07/12 01:03:30;;;;;;;1.62;1.07;;;;;;;14.20;93.53;99149.38;1619956;88;21019;-77
2022/07/12 01:05:57;;;;;;;1.20;1.10;;;;;;;14.19;92.55;99148.56;1632626;86;21043;-78
2022/07/12 01:08:23;;;;;;;1.55;1.37;;;;;;;14.20;92.30;99139.54;1636731;86;22394;-78
2022/07/12 01:10:50;;;;;;;1.20;1.10;;;;;;;14.20;92.44;99138.69;1632050;86;21022;-81
2022/07/12 01:13:17;;;;;;;1.37;1.25;;;;;;;14.18;92.29;99137.59;1628621;86;21102;-78
2022/07/12 01:15:46;;;;;;;3.83;1.35;;;;;;;14.14;92.58;99147.86;1630694;86;21096;-80
2022/07/12 01:18:13;;;;;;;2.95;1.10;;;;;;;14.13;92.57;99134.70;1612208;86;21190;-77
2022/07/12 01:20:40;;;;;;;2.65;1.30;;;;;;;14.13;92.34;99138.19;1600466;88;21137;-79
2022/07/12 01:23:07;;;;;;;1.60;1.30;;;;;;;14.14;92.31;99140.36;1632528;86;21535;-78
2022/07/12 01:25:33;;;;;;;1.82;1.05;;;;;;;14.13;92.24;99139.52;1645798;86;21042;-77
2022/07/12 01:28:03;;;;;;;3.72;1.50;;;;;;;14.15;92.51;99138.80;1669436;84;21042;-79
2022/07/12 01:30:29;;;;;;;1.92;1.25;;;;;;;14.15;92.08;99139.32;1665920;84;21069;-78
2022/07/12 01:32:56;;;;;;;3.45;1.10;;;;;;;14.16;92.82;99131.11;1663161;84;21036;-77
2022/07/12 01:35:22;;;;;;;2.12;1.20;;;;;;;14.18;92.83;99130.91;1662656;84;21585;-76
2022/07/12 01:37:49;;;;;;;2.35;1.15;;;;;;;14.16;92.26;99135.11;1668176;84;21059;-76
2022/07/12 01:40:16;;;;;;;2.02;1.40;;;;;;;14.15;92.35;99128.12;1666476;84;21018;-76
2022/07/12 01:42:46;;;;;;;2.62;1.25;;;;;;;14.12;92.17;99129.88;1669123;84;21104;-79
2022/07/12 01:45:12;;;;;;;1.80;1.37;;;;;;;14.11;92.46;99134.91;1665529;86;21335;-77
2022/07/12 01:47:40;;;;;;;1.50;1.37;;;;;;;14.06;91.87;99137.39;1657916;84;22253;-76
2022/07/12 01:50:08;;;;;;;1.42;1.20;;;;;;;14.02;91.92;99129.45;1660537;84;21061;-76
2022/07/12 01:52:36;;;;;;;2.33;1.47;;;;;;;14.01;92.28;99128.34;1666758;84;21108;-77
2022/07/12 01:55:05;;;;;;;1.60;1.30;;;;;;;13.98;92.23;99134.08;1633414;86;21132;-75
2022/07/12 01:57:32;;;;;;;2.95;1.40;;;;;;;13.94;92.33;99138.48;1664225;84;21229;-76
2022/07/12 02:00:04;;;;;;;2.92;1.60;;;;;;;13.92;92.52;99148.55;1665776;84;21082;-77
2022/07/12 02:02:31;;;;;;;3.45;1.90;;;;;;;13.86;92.34;99153.38;1666294;84;21527;-76
2022/07/12 02:05:01;;;;;;;1.85;1.32;;;;;;;13.82;92.61;99141.47;1673595;84;21038;-77
2022/07/12 02:07:29;;;;;;;1.30;1.20;;;;;;;13.81;92.69;99137.17;1678195;84;21070;-77
2022/07/12 02:09:56;;;;;;;1.95;1.27;;;;;;;13.81;92.83;99141.66;1666518;84;21367;-78
2022/07/12 02:12:22;;;;;;;2.08;1.50;;;;;;;13.80;92.35;99138.18;1667229;84;21129;-78
2022/07/12 02:14:49;;;;;;;2.30;1.45;;;;;;;13.78;92.25;99140.23;1667075;84;21620;-76
2022/07/12 02:17:16;;;;;;;1.95;1.55;;;;;;;13.79;92.55;99147.23;1665567;84;21600;-78
2022/07/12 02:19:44;;;;;;;2.25;1.42;;;;;;;13.79;92.24;99145.05;1663566;84;21054;-77
2022/07/12 02:22:12;;;;;;;2.27;1.60;;;;;;;13.77;92.13;99143.91;1663000;84;21162;-79
2022/07/12 02:24:39;;;;;;;3.70;1.50;;;;;;;13.72;92.59;99155.21;1659525;84;21066;-79
2022/07/12 02:27:06;;;;;;;4.03;1.40;;;;;;;13.75;92.45;99152.15;1661827;84;21051;-75
2022/07/12 02:29:32;;;;;;;3.75;1.80;;;;;;;13.78;92.29;99158.92;1665196;84;21106;-77
2022/07/12 02:31:59;;;;;;;14.60;1.90;;;;;;;13.78;91.51;99164.26;1665186;84;21073;-77
2022/07/12 02:34:26;;;;;;;0.93;0.85;;;;;;;13.73;91.97;99166.70;1663794;84;21116;-77
2022/07/12 02:36:53;;;;;;;3.70;1.52;;;;;;;13.75;91.95;99176.66;1659304;84;21531;-79
2022/07/12 02:39:20;;;;;;;2.98;1.52;;;;;;;13.75;91.71;99176.17;1661285;84;21502;-78
2022/07/12 02:41:46;;;;;;;1.55;1.32;;;;;;;13.74;91.40;99177.19;1662385;84;21525;-77
2022/07/12 02:44:13;;;;;;;4.75;1.60;;;;;;;13.78;91.50;99178.94;1661092;84;21081;-78
2022/07/12 02:46:39;;;;;;;2.02;1.70;;;;;;;13.75;91.52;99170.84;1661532;84;21130;-78
2022/07/12 02:49:06;;;;;;;2.15;1.72;;;;;;;13.77;90.94;99174.61;1661512;84;21149;-78
2022/07/12 02:51:32;;;;;;;2.98;1.32;;;;;;;13.78;91.40;99174.12;1661376;84;21106;-80
2022/07/12 02:53:59;;;;;;;2.75;1.22;;;;;;;13.78;91.37;99177.61;1644349;85;21507;-80
2022/07/12 02:56:26;;;;;;;1.67;1.50;;;;;;;13.74;91.40;99177.19;1646720;85;21514;-77
2022/07/12 02:58:55;;;;;;;1.42;1.32;;;;;;;13.75;91.12;99176.66;1646808;85;21157;-79
2022/07/12 03:01:21;;;;;;;3.47;1.40;;;;;;;13.75;90.72;99186.85;1650283;85;21063;-80
2022/07/12 03:03:48;;;;;;;2.30;1.35;;;;;;;13.74;90.89;99175.85;1663325;84;21541;-78
2022/07/12 03:06:16;;;;;;;1.25;1.15;;;;;;;13.73;90.84;99174.22;1663836;84;21023;-78
2022/07/12 03:08:43;;;;;;;2.80;1.40;;;;;;;13.75;90.89;99175.33;1662755;84;21093;-75
2022/07/12 03:11:10;;;;;;;2.00;1.37;;;;;;;13.73;90.87;99170.22;1656400;84;21230;-74
2022/07/12 03:13:38;;;;;;;2.62;2.10;;;;;;;13.73;90.46;99178.72;1658574;84;21056;-76
2022/07/12 03:16:07;;;;;;;7.50;2.25;;;;;;;13.73;90.21;99180.05;1662058;84;21032;-74
2022/07/12 03:18:34;;;;;;;2.62;2.10;;;;;;;13.68;90.34;99174.52;1671383;84;21575;-74
2022/07/12 03:21:01;;;;;;;4.28;2.30;;;;;;;13.70;90.20;99173.80;1666133;85;21061;-75
2022/07/12 03:23:27;;;;;;;2.30;1.80;;;;;;;13.69;89.96;99187.63;1668787;84;21156;-73
2022/07/12 03:25:54;;;;;;;2.17;1.90;;;;;;;13.66;89.93;99181.91;1668856;84;21006;-75
2022/07/12 03:28:21;;;;;;;1.60;1.50;;;;;;;13.69;90.30;99174.81;1656454;84;21124;-74
2022/07/12 03:30:48;;;;;;;3.00;1.90;;;;;;;13.69;89.57;99180.96;1663921;84;21046;-75
2022/07/12 03:33:15;;;;;;;4.97;1.60;;;;;;;13.70;90.25;99181.80;1663422;84;21120;-74
2022/07/12 03:35:41;;;;;;;2.85;1.87;;;;;;;13.72;90.15;99177.09;1662852;84;21194;-74
2022/07/12 03:38:08;;;;;;;5.55;1.50;;;;;;;13.69;90.43;99176.95;1662740;84;21328;-74
2022/07/12 03:40:35;;;;;;;2.90;1.40;;;;;;;13.72;90.71;99185.91;1662263;84;21039;-75
2022/07/12 03:43:04;;;;;;;3.55;1.40;;;;;;;13.77;90.10;99186.63;1661702;84;21112;-76
2022/07/12 03:45:31;;;;;;;1.32;1.22;;;;;;;13.81;89.83;99185.22;1667728;85;21077;-76
2022/07/12 03:47:59;;;;;;;3.02;1.35;;;;;;;13.81;89.72;99186.56;1662915;84;21773;-77
2022/07/12 03:50:25;;;;;;;2.87;1.45;;;;;;;13.84;89.98;99183.47;1662969;85;21070;-74
2022/07/12 03:52:51;;;;;;;4.25;1.50;;;;;;;13.91;89.95;99184.30;1662731;84;22608;-77
2022/07/12 03:55:18;;;;;;;3.08;1.52;;;;;;;13.91;89.32;99200.33;1663248;85;21086;-76
2022/07/12 03:57:45;;;;;;;3.12;1.80;;;;;;;13.99;89.27;99195.83;1660685;86;21095;-75
2022/07/12 04:00:13;;;;;;;3.47;1.50;;;;;;;13.99;88.61;99198.50;1661726;84;21900;-77
2022/07/12 04:02:41;;;;;;;3.98;1.62;;;;;;;13.97;88.50;99192.02;1660016;86;21106;-76
2022/07/12 04:05:09;;;;;;;3.00;1.75;;;;;;;14.03;88.50;99204.55;1659543;84;21055;-77
2022/07/12 04:07:36;;;;;;;3.05;1.40;;;;;;;14.03;88.84;99207.74;1656805;86;21086;-74
2022/07/12 04:10:04;;;;;;;3.37;1.50;;;;;;;14.06;88.52;99209.50;1662955;84;21522;-75
2022/07/12 04:12:31;;;;;;;3.15;1.50;;;;;;;14.14;88.27;99200.47;1664174;84;21887;-76
2022/07/12 04:14:58;;;;;;;2.35;1.37;;;;;;;14.16;87.77;99207.77;1663673;84;20995;-75
2022/07/12 04:17:26;;;;;;;1.95;1.55;;;;;;;14.16;88.00;99201.89;1653494;84;21149;-76
2022/07/12 04:19:52;;;;;;;2.22;1.57;;;;;;;14.29;88.31;99201.58;1643395;85;21178;-77
2022/07/12 04:22:19;;;;;;;5.12;1.62;;;;;;;14.35;87.24;99203.42;1660174;84;21082;-74
2022/07/12 04:24:45;;;;;;;3.17;1.55;;;;;;;14.36;87.30;99202.41;1649753;85;21161;-73
2022/07/12 04:27:12;;;;;;;1.52;1.32;;;;;;;14.43;86.75;99207.25;1635913;85;21606;-75
2022/07/12 04:29:38;;;;;;;3.58;1.72;;;;;;;14.48;86.83;99195.41;1660164;85;21660;-75
2022/07/12 04:32:05;;;;;;;1.70;1.30;;;;;;;14.48;86.12;99197.27;1649321;85;21094;-75
2022/07/12 04:34:32;;;;;;;1.52;1.35;;;;;;;14.60;86.18;99196.97;1651728;85;21001;-75
2022/07/12 04:36:58;;;;;;;2.98;1.87;;;;;;;14.74;85.49;99197.27;1634367;85;21060;-75
2022/07/12 04:39:24;;;;;;;3.33;1.67;;;;;;;14.80;83.53;99204.97;1644541;86;21174;-73
2022/07/12 04:41:51;;;;;;;2.90;1.85;;;;;;;14.87;84.19;99191.58;1637682;85;21058;-74
2022/07/12 04:44:18;;;;;;;4.87;1.72;;;;;;;15.03;83.76;99200.50;1638939;85;21077;-72
2022/07/12 04:46:44;;;;;;;4.03;1.70;;;;;;;15.09;83.07;99203.66;1652797;85;21068;-74
2022/07/12 04:49:10;;;;;;;3.22;1.70;;;;;;;15.08;83.01;99207.36;1650204;85;21074;-74
2022/07/12 04:51:37;;;;;;;3.37;1.57;;;;;;;15.27;82.87;99204.84;1646483;86;21089;-72
2022/07/12 04:54:04;;;;;;;1.75;1.50;;;;;;;15.33;82.38;99205.33;1641065;85;21124;-74
2022/07/12 04:56:33;;;;;;;2.12;1.32;;;;;;;15.33;81.12;99209.34;1641119;85;21042;-76
2022/07/12 04:59:00;;;;;;;2.25;1.50;;;;;;;15.38;81.28;99212.21;1641537;85;21212;-75
2022/07/12 05:01:31;;;;;;;2.60;1.60;;;;;;;15.46;81.44;99209.28;1644436;85;21084;-76
2022/07/12 05:03:57;;;;;;;4.60;2.00;;;;;;;15.47;81.20;99224.33;1642182;85;21553;-83
2022/07/12 05:06:24;;;;;;;3.87;1.55;;;;;;;15.44;80.45;99223.92;1650660;85;21048;-79
2022/07/12 05:08:50;;;;;;;3.20;1.80;;;;;;;15.54;80.44;99230.45;1640956;85;21085;-75
2022/07/12 05:11:18;;;;;;;4.17;1.80;;;;;;;15.62;79.09;99233.92;1651487;85;21069;-75
2022/07/12 05:13:44;;;;;;;2.67;1.62;;;;;;;15.55;78.75;99229.95;1659578;85;21423;-74
2022/07/12 05:16:11;;;;;;;3.90;1.47;;;;;;;15.47;79.64;99221.65;1648915;85;21553;-76
2022/07/12 05:18:37;;;;;;;7.15;1.87;;;;;;;15.61;79.58;99230.96;1657475;84;21601;-73
2022/07/12 05:21:04;;;;;;;2.22;1.62;;;;;;;15.74;79.62;99237.59;1657345;84;21083;-75
2022/07/12 05:23:31;;;;;;;3.52;1.60;;;;;;;15.74;78.30;99226.88;1667291;84;21499;-78
2022/07/12 05:25:59;;;;;;;3.05;1.82;;;;;;;15.75;77.88;99244.61;1655164;86;21277;-76
2022/07/12 05:28:25;;;;;;;1.60;1.50;;;;;;;15.80;78.32;99237.26;1657011;84;21526;-76
2022/07/12 05:30:53;;;;;;;1.87;1.75;;;;;;;15.80;78.23;99238.59;1657357;86;21113;-77
2022/07/12 05:33:19;;;;;;;2.65;1.80;;;;;;;15.79;78.20;99239.65;1657802;85;21650;-77
2022/07/12 05:35:47;;;;;;;2.08;1.50;;;;;;;15.92;78.40;99235.03;1658247;84;21098;-77
2022/07/12 05:38:14;;;;;;;3.08;1.70;;;;;;;16.05;78.47;99248.03;1655532;86;21617;-78
2022/07/12 05:40:40;;;;;;;2.45;1.55;;;;;;;16.08;77.75;99256.47;1655096;84;21042;-79
2022/07/12 05:43:07;;;;;;;2.80;1.72;;;;;;;16.06;76.74;99242.99;1657312;84;21085;-77
2022/07/12 05:45:36;;;;;;;1.70;1.50;;;;;;;16.08;77.32;99244.41;1654310;84;21077;-77
2022/07/12 05:48:05;;;;;;;3.85;1.87;;;;;;;16.17;76.61;99243.64;1659321;84;21069;-73
2022/07/12 05:50:31;;;;;;;4.87;2.00;;;;;;;16.18;76.71;99247.14;1660329;85;21227;-79
2022/07/12 05:55:44;;;;;;;3.00;1.67;;;;;;;16.35;77.20;99248.77;1654595;85;21035;-79
2022/07/12 05:58:11;;;;;;;2.15;1.67;;;;;;;16.39;77.13;99244.09;1659397;85;21062;-78
2022/07/12 06:00:39;;;;;;;1.70;1.60;;;;;;;16.53;76.28;99249.34;1654999;85;21121;-80
2022/07/12 06:03:05;;;;;;;3.50;1.67;;;;;;;16.62;76.25;99246.17;1657863;84;21266;-80
2022/07/12 06:05:32;;;;;;;2.47;2.15;;;;;;;16.61;75.45;99248.56;1658802;85;21078;-80
2022/07/12 06:08:00;;;;;;;3.50;1.70;;;;;;;16.58;75.38;99257.04;1663019;85;21038;-81
2022/07/12 06:10:27;;;;;;;1.92;1.47;;;;;;;16.65;75.90;99253.79;1649281;85;21066;-80
2022/07/12 06:12:53;;;;;;;1.92;1.52;;;;;;;16.75;74.52;99249.80;1636280;86;21213;-80
2022/07/12 06:15:20;;;;;;;4.80;1.62;;;;;;;16.75;74.54;99249.27;1662798;84;21578;-81
2022/07/12 06:17:47;;;;;;;2.67;1.50;;;;;;;16.74;74.78;99257.53;1655632;85;21101;-80
2022/07/12 06:20:14;;;;;;;3.30;1.65;;;;;;;16.65;74.80;99260.99;1657817;86;21102;-81
2022/07/12 06:22:41;;;;;;;4.47;2.10;;;;;;;16.66;74.65;99258.09;1659922;84;21100;-79
2022/07/12 06:25:09;;;;;;;2.92;1.50;;;;;;;16.73;74.09;99262.08;1630721;87;21584;-81
2022/07/12 06:27:35;;;;;;;3.30;1.80;;;;;;;16.71;74.10;99270.34;1631852;85;21186;-80
2022/07/12 06:30:03;;;;;;;3.10;1.90;;;;;;;16.71;74.33;99269.00;1634655;85;21027;-81
2022/07/12 06:32:30;;;;;;;3.55;1.75;;;;;;;16.78;74.48;99266.77;1646337;86;20986;-80
2022/07/12 06:34:57;;;;;;;1.98;1.77;;;;;;;16.97;74.41;99279.20;1661433;84;21043;-86
2022/07/12 06:37:25;;;;;;;3.50;1.67;;;;;;;17.02;72.55;99292.80;1622287;83;21109;-85
2022/07/12 06:39:52;;;;;;;1.90;1.65;;;;;;;17.01;73.01;99285.77;1640653;83;21498;-83
2022/07/12 06:42:20;;;;;;;2.02;1.55;;;;;;;17.01;72.34;99299.19;1669867;84;21058;-80
2022/07/12 06:44:49;;;;;;;3.10;2.08;;;;;;;17.07;72.09;99295.64;1667059;84;21074;-83
2022/07/12 06:47:15;;;;;;;3.70;2.30;;;;;;;17.17;72.44;99295.13;1665729;83;21129;-80
2022/07/12 06:49:42;;;;;;;2.05;1.30;;;;;;;17.39;72.06;99302.22;1659849;84;21085;-85
2022/07/12 06:52:09;;;;;;;2.80;1.82;;;;;;;17.51;69.16;99311.70;1663495;82;21111;-76
2022/07/12 06:54:35;;;;;;;3.27;1.80;;;;;;;17.48;70.00;99303.58;1656281;84;21038;-84
2022/07/12 06:57:03;;;;;;;1.90;1.72;;;;;;;17.49;71.20;99311.09;1659522;86;21010;-82
2022/07/12 06:59:30;;;;;;;3.55;1.70;;;;;;;17.57;71.39;99310.80;1658252;84;21118;-83
2022/07/12 07:01:57;;;;;;;1.80;1.47;;;;;;;17.71;70.69;99314.67;1654861;84;21085;-84
2022/07/12 07:04:24;;;;;;;3.90;1.62;;;;;;;17.92;69.32;99316.09;1667967;82;21079;-85
2022/07/12 07:06:51;;;;;;;2.22;1.37;;;;;;;18.03;68.97;99317.49;1671609;83;21027;-85
2022/07/12 07:09:18;;;;;;;2.52;2.10;;;;;;;18.15;69.90;99318.06;1678498;85;21046;-86
2022/07/12 07:11:46;;;;;;;1.98;1.40;;;;;;;18.21;68.55;99319.30;1664229;84;20987;-85
2022/07/12 07:14:13;;;;;;;2.62;1.52;;;;;;;18.18;68.07;99330.53;1675700;84;21090;-86
2022/07/12 07:16:41;;;;;;;1.80;1.50;;;;;;;18.07;66.68;99331.30;1658232;84;21656;-87
2022/07/12 07:19:07;;;;;;;3.22;1.50;;;;;;;17.96;66.90;99333.41;1657602;84;21094;-81
2022/07/12 07:21:34;;;;;;;5.00;1.65;;;;;;;17.90;66.98;99326.25;1666283;84;21037;-83
2022/07/12 07:24:00;;;;;;;2.50;1.40;;;;;;;17.93;67.37;99328.50;1674793;84;21033;-85
2022/07/12 07:26:27;;;;;;;2.65;1.52;;;;;;;18.06;67.25;99327.80;1668282;84;21057;-85
2022/07/12 07:31:39;;;;;;;2.10;1.57;;;;;;;18.15;66.66;99344.95;1661801;84;21056;-82
2022/07/12 07:34:06;;;;;;;2.37;1.27;;;;;;;18.08;65.71;99333.77;1672506;84;21077;-79
2022/07/12 07:36:32;;;;;;;1.95;1.50;;;;;;;18.03;66.23;99354.30;1667371;84;21034;-78
2022/07/12 07:38:59;;;;;;;2.12;1.42;;;;;;;17.93;66.21;99362.91;1666327;84;21097;-81
2022/07/12 07:41:25;;;;;;;3.12;1.50;;;;;;;17.88;65.96;99342.06;1668627;84;21094;-81
2022/07/12 07:43:52;;;;;;;1.87;1.25;;;;;;;17.90;66.63;99342.38;1668783;84;21117;-81
2022/07/12 07:47:50;;;;;;;4.03;1.45;;;;;;;18.13;67.05;99339.80;1787085;79;27066;-81
2022/07/12 07:50:17;;;;;;;1.87;1.55;;;;;;;18.21;66.56;99348.88;1734009;80;21132;-85
2022/07/12 07:52:45;;;;;;;2.10;1.80;;;;;;;18.18;66.29;99349.88;1745328;80;21237;-81
2022/07/12 07:55:12;;;;;;;1.98;1.60;;;;;;;18.10;65.82;99359.58;1748279;80;21542;-81
2022/07/12 07:57:38;;;;;;;1.82;1.40;;;;;;;18.01;66.18;99357.74;1748379;80;21041;-78
2022/07/12 08:00:06;;;;;;;1.77;1.67;;;;;;;17.98;66.16;99364.41;1753474;80;21042;-77
2022/07/12 08:02:35;;;;;;;1.52;1.42;;;;;;;18.01;66.13;99351.84;1750326;80;21103;-77
2022/07/12 08:05:05;;;;;;;3.40;1.92;;;;;;;18.05;66.57;99334.20;1750975;81;21152;-84
2022/07/12 08:07:33;;;;;;;3.65;1.60;;;;;;;18.10;66.09;99349.67;1748041;81;20954;-84
2022/07/12 08:10:00;;;;;;;1.80;1.45;;;;;;;18.17;66.32;99340.98;1756498;80;20958;-84
2022/07/12 08:12:27;;;;;;;1.87;1.60;;;;;;;18.21;64.92;99350.76;1759109;80;21533;-85
2022/07/12 08:14:54;;;;;;;1.40;1.30;;;;;;;18.22;64.38;99346.50;1739813;80;21509;-85
2022/07/12 08:17:21;;;;;;;1.90;1.70;;;;;;;18.18;64.81;99337.78;1745753;80;21504;-85
2022/07/12 08:19:48;;;;;;;3.08;1.60;;;;;;;18.14;64.60;99333.38;1739334;80;21139;-85
2022/07/12 08:22:15;;;;;;;1.80;1.52;;;;;;;18.16;65.77;99335.32;1746769;80;21046;-83
2022/07/12 08:24:41;;;;;;;4.62;2.08;;;;;;;18.24;66.41;99335.52;1743207;80;21081;-84
2022/07/12 08:27:11;;;;;;;5.05;2.10;;;;;;;18.38;66.03;99336.16;1745313;80;21022;-83
2022/07/12 08:29:37;;;;;;;3.52;1.70;;;;;;;18.54;65.26;99334.67;1737600;81;21120;-82
2022/07/12 08:32:05;;;;;;;1.80;1.70;;;;;;;18.65;64.96;99333.34;1750007;80;21018;-86
2022/07/12 08:34:32;;;;;;;3.15;1.37;;;;;;;18.74;64.48;99351.88;1747039;81;21393;-85
2022/07/12 08:37:00;;;;;;;2.27;1.50;;;;;;;18.81;64.11;99344.52;1755935;80;21460;-85
2022/07/12 08:39:26;;;;;;;2.10;1.70;;;;;;;18.85;63.68;99338.97;1756142;80;21049;-85
2022/07/12 08:41:54;;;;;;;4.70;1.60;;;;;;;18.85;63.55;99345.19;1716115;81;21621;-87
2022/07/12 08:44:21;;;;;;;3.72;1.65;;;;;;;18.86;63.08;99344.13;1756092;80;20989;-87
2022/07/12 08:46:47;;;;;;;1.70;1.60;;;;;;;18.86;62.06;99341.44;1742103;80;21041;-86
2022/07/12 08:49:16;;;;;;;3.20;1.70;;;;;;;18.86;61.23;99341.44;1746627;80;21034;-84
2022/07/12 08:51:42;;;;;;;1.40;1.30;;;;;;;18.93;61.85;99342.69;1751930;81;21190;-86
2022/07/12 08:54:12;;;;;;;1.52;1.32;;;;;;;19.02;61.59;99336.41;1747612;80;21080;-85
2022/07/12 08:56:42;;;;;;;1.65;1.55;;;;;;;19.09;61.76;99339.02;1733282;81;21037;-84
2022/07/12 08:59:11;;;;;;;11.45;2.15;;;;;;;19.12;60.88;99337.99;1749869;80;21006;-85
2022/07/12 09:01:49;;;;;;;1.27;1.17;;;;;;;19.19;61.13;99329.81;1747177;80;21066;-84
2022/07/12 09:04:30;;;;;;;2.08;1.37;;;;;;;19.28;60.54;99345.92;1707696;81;21352;-81
2022/07/12 09:06:54;;;;;;;3.08;1.40;;;;;;;19.32;61.05;99337.66;1701264;82;21316;-81
2022/07/12 09:09:31;;;;;;;2.15;1.40;;;;;;;19.42;61.12;99335.72;1700076;82;21137;-83
2022/07/12 09:11:59;;;;;;;1.27;1.17;;;;;;;19.57;61.25;99337.93;1674106;84;21751;-85
2022/07/12 09:14:27;;;;;;;2.85;1.20;;;;;;;19.71;58.05;99352.77;1688166;84;21057;-83
2022/07/12 09:17:12;;;;;;;1.45;1.05;;;;;;;19.72;57.15;99343.67;1694612;83;20973;-81
2022/07/12 09:19:39;;;;;;;3.02;1.30;;;;;;;19.65;57.22;99345.64;1697015;82;21099;-83
2022/07/12 09:22:16;;;;;;;1.30;1.20;;;;;;;19.62;57.07;99344.75;1695609;83;21060;-85
2022/07/12 09:24:43;;;;;;;1.35;1.20;;;;;;;19.70;57.67;99348.95;1696683;82;21579;-84
2022/07/12 09:27:10;;;;;;;1.30;1.20;;;;;;;19.87;57.37;99347.73;1698497;82;21612;-84
2022/07/12 09:29:50;;;;;;;1.85;1.70;;;;;;;20.13;57.62;99342.32;1673775;84;21620;-79
2022/07/12 09:37:46;;;;;;;1.30;1.20;;;;;;;21.23;53.99;99335.27;1694170;83;21564;-83
2022/07/12 09:40:13;;;;;;;3.17;1.37;;;;;;;21.56;53.43;99337.94;1692582;84;21546;-82
2022/07/12 09:42:42;;;;;;;1.35;1.25;;;;;;;21.91;52.64;99334.05;1693279;83;21489;-85
2022/07/12 09:45:10;;;;;;;1.60;1.47;;;;;;;22.31;53.14;99339.66;1692721;83;22600;-82
2022/07/12 09:47:36;;;;;;;2.00;1.30;;;;;;;22.75;51.70;99349.00;1669519;83;21068;-84
2022/07/12 09:50:07;;;;;;;2.10;1.80;;;;;;;23.02;50.07;99345.40;1733887;80;21340;-84
2022/07/12 09:52:37;;;;;;;1.50;1.40;;;;;;;23.12;48.86;99343.33;1740338;80;21070;-84
2022/07/12 09:55:04;;;;;;;1.55;1.45;;;;;;;23.03;48.75;99347.63;1744094;80;20994;-84
2022/07/12 09:57:33;;;;;;;1.55;1.22;;;;;;;22.87;49.61;99337.16;1736801;80;21074;-84
2022/07/12 10:00:02;;;;;;;1.60;1.50;;;;;;;22.76;49.17;99338.98;1749799;81;20991;-84
2022/07/12 10:02:32;;;;;;;1.63;1.43;;;;;;;22.61;50.51;99340.20;1746410;80;21109;-83
2022/07/12 10:04:58;;;;;;;1.40;1.30;;;;;;;22.67;50.41;99330.50;1740778;80;21018;-79
2022/07/12 10:07:27;;;;;;;1.70;1.40;;;;;;;22.73;50.85;99328.11;1742392;80;21098;-80
2022/07/12 10:09:56;;;;;;;1.62;1.32;;;;;;;22.89;50.03;99349.90;1747205;80;21427;-79
2022/07/12 10:12:23;;;;;;;2.75;1.12;;;;;;;22.76;49.79;99338.98;1741048;82;21053;-78
2022/07/12 10:15:02;;;;;;;1.50;1.40;;;;;;;22.49;50.06;99330.89;1740408;82;21004;-80
2022/07/12 10:17:28;;;;;;;1.50;1.40;;;;;;;22.28;51.19;99327.17;1747045;80;21121;-81
2022/07/12 10:20:17;;;;;;;1.65;1.55;;;;;;;22.21;51.78;99330.58;1735256;80;21118;-80
2022/07/12 10:22:44;;;;;;;2.45;1.55;;;;;;;22.14;51.70;99338.91;1741740;80;21554;-82
2022/07/12 10:25:32;;;;;;;1.85;1.60;;;;;;;22.22;52.86;99325.45;1731767;80;21062;-82
2022/07/12 10:28:01;;;;;;;1.45;1.35;;;;;;;22.51;50.97;99319.27;1724734;80;21040;-83
2022/07/12 10:30:27;;;;;;;1.62;1.52;;;;;;;22.95;51.23;99311.77;1740673;80;21034;-83
2022/07/12 10:33:02;;;;;;;1.50;1.40;;;;;;;23.32;50.25;99314.21;1736220;80;21085;-83
2022/07/12 10:35:30;;;;;;;3.85;1.60;;;;;;;23.40;49.40;99313.70;1743605;82;21092;-85
2022/07/12 10:38:16;;;;;;;2.50;1.27;;;;;;;23.39;50.40;99303.93;1737304;80;21069;-83
2022/07/12 10:40:45;;;;;;;2.15;1.50;;;;;;;;;;1751778;80;21030;-84
2022/07/12 10:43:15;;;;;;;2.77;1.60;;;;;;;23.34;49.65;99313.41;1717341;81;21035;-84
2022/07/12 10:45:44;;;;;;;1.70;1.60;;;;;;;23.24;49.69;99310.64;1738014;82;21072;-84
2022/07/12 10:48:19;;;;;;;1.67;1.40;;;;;;;22.97;49.49;99316.94;1744870;80;21528;-83
2022/07/12 10:50:55;;;;;;;2.00;1.40;;;;;;;22.62;50.54;99316.10;1751851;80;20999;-79
2022/07/12 10:53:34;;;;;;;1.60;1.50;;;;;;;22.29;51.48;99322.86;1755815;80;21038;-78
2022/07/12 10:56:17;;;;;;;2.75;1.70;;;;;;;22.23;52.43;99333.30;1740695;80;21061;-78
2022/07/12 10:58:56;;;;;;;4.08;1.90;;;;;;;22.48;52.32;99323.83;1748894;80;21045;-79
2022/07/12 11:01:31;;;;;;;1.32;1.22;;;;;;;23.02;52.07;99318.86;1742653;81;21046;-80
2022/07/12 11:04:08;;;;;;;1.67;1.52;;;;;;;23.34;50.64;99310.70;1753509;80;21003;-79
2022/07/12 11:06:39;;;;;;;1.87;1.30;;;;;;;23.34;50.50;99339.96;1754890;80;21002;-81
2022/07/12 11:09:11;;;;;;;1.85;1.67;;;;;;;23.16;50.73;99340.41;1753860;79;20999;-86
2022/07/12 11:11:52;;;;;;;2.67;1.40;;;;;;;22.97;51.79;99343.48;1750183;81;21061;-81
2022/07/12 11:14:23;;;;;;;1.52;1.42;;;;;;;22.68;52.01;99336.75;1749782;81;26790;-83
2022/07/12 11:16:52;;;;;;;1.27;1.17;;;;;;;22.38;52.83;99325.91;1751354;80;21018;-81
2022/07/12 11:19:24;;;;;;;3.87;1.30;;;;;;;22.19;53.58;99317.30;1753519;80;20998;-80
2022/07/12 11:21:55;;;;;;;2.50;1.67;;;;;;;22.02;54.19;99316.05;1749951;81;20982;-79
2022/07/12 11:24:24;;;;;;;1.37;1.27;;;;;;;21.90;52.86;99322.13;1736407;80;21081;-80
2022/07/12 11:26:50;;;;;;;1.65;1.55;;;;;;;21.67;53.45;99336.20;1741128;80;21225;-84
2022/07/12 11:29:17;;;;;;;4.47;1.57;;;;;;;21.30;54.26;99329.97;1734326;80;21506;-82
2022/07/12 11:31:44;;;;;;;4.33;1.90;;;;;;;20.95;57.92;99342.41;1738603;80;21049;-87
2022/07/12 11:34:24;;;;;;;4.20;1.95;;;;;;;20.53;60.91;99342.25;1750540;81;21093;-87
2022/07/12 11:36:56;;;;;;;2.40;1.87;;;;;;;20.19;62.61;99362.93;1753229;81;21046;-88
2022/07/12 11:39:38;;;;;;;3.12;2.00;;;;;;;19.87;64.69;99381.42;1750635;80;21238;-89
2022/07/12 11:42:06;;;;;;;4.28;1.82;;;;;;;19.45;64.90;99388.59;1746293;81;21057;-87
2022/07/12 11:44:52;;;;;;;12.47;3.47;;;;;;;18.81;68.24;99409.11;1748672;80;21034;-83
2022/07/12 11:47:22;;;;;;;11.95;4.22;;;;;;;18.00;73.36;99436.72;1749485;81;21039;-83
2022/07/12 11:49:55;;;;;;;12.45;4.28;;;;;;;16.87;85.77;99434.50;1739612;80;20991;-82
2022/07/12 11:52:24;;;;;;;10.08;3.87;;;;;;;15.89;89.57;99435.53;1735460;80;21812;-81